Time;durP1;ratioP1;P1;durP2;ratioP2;P2;SDS_P1;SDS_P2;PMS_P1;PMS_P2;Temp;Humidity;BMP_temperature;BMP_pressure;BME280_temperature;BME280_humidity;BME280_pressure;Samples;Min_cycle;Max_cycle;Signal;HPM_P1;HPM_P2
2024/03/04 00:01:04;;;;;;;8.80;4.85;;;11.10;59.70;;;;;;4969894;28;20129;-82
2024/03/04 00:03:32;;;;;;;9.13;5.43;;;11.10;59.70;;;;;;4969416;28;20126;-83
2024/03/04 00:05:59;;;;;;;6.47;5.10;;;11.10;59.70;;;;;;4968859;28;20053;-83
2024/03/04 00:08:25;;;;;;;8.88;5.57;;;11.10;59.70;;;;;;4966489;28;20513;-82
2024/03/04 00:10:51;;;;;;;9.63;5.28;;;11.10;59.70;;;;;;4968701;28;20035;-81
2024/03/04 00:13:17;;;;;;;6.93;4.90;;;11.10;59.70;;;;;;4964732;28;20042;-82
2024/03/04 00:15:43;;;;;;;9.23;5.32;;;11.10;59.70;;;;;;4963061;28;20039;-82
2024/03/04 00:18:10;;;;;;;9.85;5.15;;;11.10;59.80;;;;;;4980861;28;20128;-82
2024/03/04 00:20:36;;;;;;;8.77;5.35;;;11.10;59.50;;;;;;4983526;28;20046;-81
2024/03/04 00:23:04;;;;;;;10.52;4.93;;;11.10;59.50;;;;;;4987830;28;20045;-81
2024/03/04 00:25:31;;;;;;;8.57;5.55;;;11.00;59.30;;;;;;4985619;28;20077;-81
2024/03/04 00:27:57;;;;;;;8.90;5.22;;;11.10;59.70;;;;;;4963507;28;20038;-81
2024/03/04 00:30:26;;;;;;;12.30;5.38;;;11.10;60.10;;;;;;4981988;28;20075;-80
2024/03/04 00:32:52;;;;;;;7.20;5.15;;;11.00;59.70;;;;;;4985844;28;20035;-81
2024/03/04 00:35:19;;;;;;;10.68;5.68;;;11.00;59.80;;;;;;4973171;28;20042;-81
2024/03/04 00:37:46;;;;;;;9.80;4.90;;;11.00;59.90;;;;;;4982588;28;20645;-81
2024/03/04 00:40:12;;;;;;;7.07;4.88;;;11.00;59.60;;;;;;4985965;28;20081;-81
2024/03/04 00:42:38;;;;;;;9.23;5.40;;;11.00;59.80;;;;;;4969531;28;20037;-82
2024/03/04 00:45:05;;;;;;;8.20;5.50;;;11.00;59.50;;;;;;4971123;28;20035;-84
2024/03/04 00:47:35;;;;;;;10.55;5.25;;;11.00;59.50;;;;;;4986186;28;20027;-82
2024/03/04 00:50:02;;;;;;;9.68;5.70;;;11.00;59.60;;;;;;4986106;28;20023;-82
2024/03/04 00:52:30;;;;;;;10.20;5.90;;;11.00;60.10;;;;;;4988866;28;20116;-83
2024/03/04 00:54:56;;;;;;;9.85;5.15;;;11.00;60.00;;;;;;4951302;28;20129;-83
2024/03/04 00:57:22;;;;;;;8.23;5.18;;;11.00;60.00;;;;;;4940739;28;20034;-82
2024/03/04 00:59:48;;;;;;;9.23;5.60;;;11.00;59.80;;;;;;4969245;28;20034;-82
2024/03/04 01:02:14;;;;;;;8.48;5.38;;;10.90;59.90;;;;;;4955561;28;20503;-83
2024/03/04 01:04:41;;;;;;;9.25;5.72;;;10.90;60.00;;;;;;4957915;28;20065;-83
2024/03/04 01:07:07;;;;;;;9.25;5.60;;;10.90;59.90;;;;;;4968357;28;20042;-83
2024/03/04 01:09:33;;;;;;;8.35;5.65;;;10.90;59.80;;;;;;4959669;28;20045;-82
2024/03/04 01:12:00;;;;;;;8.88;5.78;;;10.90;60.20;;;;;;4987194;28;20039;-82
2024/03/04 01:14:26;;;;;;;10.73;6.28;;;10.90;59.70;;;;;;4983420;28;20039;-82
2024/03/04 01:16:52;;;;;;;11.15;5.75;;;10.90;59.90;;;;;;4967539;28;20100;-83
2024/03/04 01:19:20;;;;;;;8.93;5.72;;;10.90;60.10;;;;;;4970827;28;20516;-83
2024/03/04 01:21:47;;;;;;;11.65;6.03;;;10.90;59.70;;;;;;4970585;28;20035;-83
2024/03/04 01:24:15;;;;;;;9.27;5.65;;;10.90;59.60;;;;;;4973493;28;20027;-83
2024/03/04 01:26:42;;;;;;;9.70;5.85;;;10.90;60.00;;;;;;4988088;28;20534;-83
2024/03/04 01:29:10;;;;;;;8.77;5.68;;;10.90;59.70;;;;;;4972687;28;20034;-82
2024/03/04 01:31:36;;;;;;;8.45;5.38;;;10.90;60.10;;;;;;4975077;28;20045;-82
2024/03/04 01:34:04;;;;;;;11.80;6.28;;;10.90;59.90;;;;;;4985957;28;20038;-82
2024/03/04 01:36:30;;;;;;;8.93;5.95;;;10.80;59.80;;;;;;4986213;28;20524;-82
2024/03/04 01:38:57;;;;;;;9.40;6.53;;;10.80;59.90;;;;;;4970554;28;20057;-82
2024/03/04 01:41:23;;;;;;;10.32;6.05;;;10.90;60.20;;;;;;4969218;28;20059;-83
2024/03/04 01:43:50;;;;;;;10.20;6.10;;;10.80;59.80;;;;;;4988919;28;20030;-83
2024/03/04 01:46:18;;;;;;;7.70;5.45;;;10.80;59.90;;;;;;4986622;28;20042;-82
2024/03/04 01:48:45;;;;;;;12.10;6.07;;;10.80;59.70;;;;;;4972765;28;20045;-81
2024/03/04 01:51:12;;;;;;;11.13;6.50;;;10.80;59.70;;;;;;4959988;28;20030;-82
2024/03/04 01:53:38;;;;;;;10.27;6.25;;;10.80;59.70;;;;;;4970575;28;20424;-82
2024/03/04 01:56:06;;;;;;;9.30;6.35;;;10.80;59.70;;;;;;4957968;28;20068;-83
2024/03/04 01:58:35;;;;;;;13.18;6.50;;;10.80;59.80;;;;;;4972089;28;20338;-82
2024/03/04 02:01:05;;;;;;;10.95;6.68;;;10.80;60.10;;;;;;4974921;28;20045;-82
2024/03/04 02:03:32;;;;;;;10.05;6.50;;;10.80;60.60;;;;;;4989233;28;20449;-82
2024/03/04 02:06:00;;;;;;;10.20;6.53;;;10.70;60.00;;;;;;4958238;28;20136;-82
2024/03/04 02:08:26;;;;;;;10.63;6.47;;;10.70;60.20;;;;;;4986072;28;20046;-82
2024/03/04 02:10:54;;;;;;;10.35;6.43;;;10.80;60.40;;;;;;4957681;28;20049;-83
2024/03/04 02:13:20;;;;;;;11.23;6.85;;;10.80;60.20;;;;;;4976463;28;20135;-82
2024/03/04 02:15:47;;;;;;;11.18;7.20;;;10.80;60.20;;;;;;4972409;28;20043;-82
2024/03/04 02:18:15;;;;;;;10.75;6.97;;;10.80;60.00;;;;;;4958443;28;20493;-84
2024/03/04 02:20:45;;;;;;;11.52;7.47;;;10.70;60.10;;;;;;4972289;28;20046;-85
2024/03/04 02:23:11;;;;;;;11.40;7.60;;;10.70;60.10;;;;;;4983651;28;20417;-85
2024/03/04 02:25:52;;;;;;;13.35;8.13;;;10.70;60.00;;;;;;4955869;28;20089;-86
2024/03/04 02:28:19;;;;;;;15.45;7.72;;;10.70;59.90;;;;;;4971567;28;20136;-85
2024/03/04 02:30:45;;;;;;;10.88;7.97;;;10.70;60.00;;;;;;4947031;28;20049;-86
2024/03/04 02:33:12;;;;;;;11.20;7.40;;;10.70;59.90;;;;;;4982925;28;20121;-84
2024/03/04 02:35:40;;;;;;;12.70;7.65;;;10.70;59.80;;;;;;4981958;28;20030;-85
2024/03/04 02:38:08;;;;;;;11.05;7.57;;;10.70;60.00;;;;;;4956162;28;20035;-85
2024/03/04 02:40:34;;;;;;;11.68;7.35;;;10.70;59.90;;;;;;4952209;28;20155;-86
2024/03/04 02:43:00;;;;;;;13.73;7.57;;;10.70;59.90;;;;;;4972458;28;20125;-84
2024/03/04 02:45:26;;;;;;;12.68;7.88;;;10.70;60.00;;;;;;4973373;28;20043;-84
2024/03/04 02:47:52;;;;;;;12.48;7.65;;;10.70;59.70;;;;;;4977110;28;20042;-86
2024/03/04 02:50:18;;;;;;;11.48;7.53;;;10.60;59.90;;;;;;4962462;28;20057;-88
2024/03/04 02:52:44;;;;;;;13.13;7.18;;;10.60;59.50;;;;;;4955634;28;21466;-84
2024/03/04 02:55:10;;;;;;;11.13;7.25;;;10.70;59.70;;;;;;4958587;28;20039;-86
2024/03/04 02:57:36;;;;;;;10.52;7.32;;;10.60;59.70;;;;;;4971976;28;20063;-86
2024/03/04 03:00:03;;;;;;;13.05;7.05;;;10.60;59.40;;;;;;4953968;28;20073;-83
2024/03/04 03:02:28;;;;;;;10.48;6.20;;;10.60;59.50;;;;;;4981254;28;20108;-80
2024/03/04 03:04:54;;;;;;;11.55;6.63;;;10.60;59.30;;;;;;4967625;28;20039;-81
2024/03/04 03:07:20;;;;;;;12.05;7.57;;;10.60;59.40;;;;;;4967565;28;20137;-83
2024/03/04 03:09:46;;;;;;;12.88;7.30;;;10.60;59.40;;;;;;4972104;28;20039;-83
2024/03/04 03:12:12;;;;;;;11.85;7.03;;;10.60;59.50;;;;;;4954258;28;20120;-82
2024/03/04 03:14:38;;;;;;;12.43;7.45;;;10.60;59.70;;;;;;4953340;28;20042;-82
2024/03/04 03:17:04;;;;;;;13.23;7.30;;;10.60;60.10;;;;;;4967451;28;20042;-82
2024/03/04 03:19:30;;;;;;;12.23;6.80;;;10.50;59.40;;;;;;4970321;28;20502;-81
2024/03/04 03:21:57;;;;;;;11.77;6.95;;;10.60;59.40;;;;;;4980583;28;20031;-81
2024/03/04 03:24:23;;;;;;;12.05;6.88;;;10.60;59.70;;;;;;4968516;28;20031;-81
2024/03/04 03:26:49;;;;;;;9.80;6.65;;;10.50;59.40;;;;;;4964839;28;20050;-82
2024/03/04 03:29:16;;;;;;;13.07;7.57;;;10.50;59.50;;;;;;4971585;28;20031;-83
2024/03/04 03:31:42;;;;;;;10.30;6.70;;;10.50;59.50;;;;;;4956239;28;20034;-84
2024/03/04 03:34:09;;;;;;;11.27;7.05;;;10.50;59.30;;;;;;4948462;28;20042;-82
2024/03/04 03:36:39;;;;;;;12.32;7.43;;;10.50;59.60;;;;;;4970129;28;20116;-81
2024/03/04 03:39:07;;;;;;;9.73;6.65;;;10.50;59.40;;;;;;4968488;28;20084;-82
2024/03/04 03:41:34;;;;;;;10.45;6.60;;;10.50;59.40;;;;;;4980085;28;20038;-83
2024/03/04 03:44:01;;;;;;;11.07;7.47;;;10.50;59.30;;;;;;4950120;28;20645;-82
2024/03/04 03:46:27;;;;;;;9.52;6.53;;;10.50;59.20;;;;;;4979855;28;20034;-84
2024/03/04 03:48:53;;;;;;;12.27;7.00;;;10.50;59.40;;;;;;4964916;28;20484;-83
2024/03/04 03:51:19;;;;;;;9.75;6.68;;;10.50;59.20;;;;;;4954092;28;20039;-85
2024/03/04 03:53:45;;;;;;;11.38;7.55;;;10.40;59.10;;;;;;4954588;28;20457;-85
2024/03/04 03:56:11;;;;;;;10.38;6.53;;;10.50;59.10;;;;;;4971323;28;20039;-85
2024/03/04 03:58:38;;;;;;;10.35;7.03;;;10.40;59.10;;;;;;4971392;28;20092;-85
2024/03/04 04:01:04;;;;;;;10.75;6.85;;;10.40;58.90;;;;;;4963244;28;20133;-84
2024/03/04 04:03:33;;;;;;;9.07;6.35;;;10.40;59.00;;;;;;4950802;28;20042;-86
2024/03/04 04:06:00;;;;;;;13.63;6.70;;;10.40;59.00;;;;;;4964028;28;20146;-85
2024/03/04 04:08:27;;;;;;;9.85;6.32;;;10.40;58.70;;;;;;4970521;28;20051;-79
2024/03/04 04:10:54;;;;;;;10.80;6.90;;;10.40;59.00;;;;;;4968872;28;20042;-78
2024/03/04 04:13:23;;;;;;;10.07;5.85;;;10.30;58.90;;;;;;4964083;28;20674;-82
2024/03/04 04:15:49;;;;;;;8.75;6.30;;;10.30;59.20;;;;;;4968816;28;20031;-82
2024/03/04 04:18:16;;;;;;;11.45;6.32;;;10.30;59.20;;;;;;4966256;28;20166;-85
2024/03/04 04:20:43;;;;;;;10.63;6.10;;;10.40;59.10;;;;;;4954350;28;20039;-86
2024/03/04 04:23:09;;;;;;;9.43;6.22;;;10.30;58.90;;;;;;4967514;28;20027;-90
2024/03/04 04:25:35;;;;;;;9.93;5.97;;;10.30;58.80;;;;;;4954931;28;20536;-89
2024/03/04 04:28:02;;;;;;;10.02;6.32;;;10.30;58.90;;;;;;4961003;28;20893;-86
2024/03/04 04:30:28;;;;;;;9.30;6.10;;;10.30;58.70;;;;;;4961153;28;20079;-86
2024/03/04 04:32:55;;;;;;;10.10;6.60;;;10.40;58.90;;;;;;4969396;28;20041;-87
2024/03/04 04:35:21;;;;;;;11.85;6.32;;;10.30;58.80;;;;;;4970576;28;20581;-89
2024/03/04 04:37:47;;;;;;;8.63;6.00;;;10.30;58.70;;;;;;4969523;28;20037;-85
2024/03/04 04:40:19;;;;;;;12.48;5.78;;;10.30;58.90;;;;;;4980264;28;20566;-86
2024/03/04 04:42:45;;;;;;;10.35;6.25;;;10.30;59.10;;;;;;4950691;28;20058;-89
2024/03/04 04:45:12;;;;;;;14.82;5.75;;;10.40;59.30;;;;;;4955371;28;20041;-91
2024/03/04 04:47:38;;;;;;;10.23;5.70;;;10.40;59.80;;;;;;4969846;28;20038;-91
2024/03/04 04:50:05;;;;;;;10.05;5.88;;;10.40;59.90;;;;;;4970459;28;20037;-85
2024/03/04 04:52:31;;;;;;;9.82;5.82;;;10.40;60.00;;;;;;4968724;28;20035;-90
2024/03/04 04:54:57;;;;;;;11.15;5.95;;;10.40;60.00;;;;;;4984520;28;20039;-89
2024/03/04 04:57:25;;;;;;;9.80;5.90;;;10.50;60.10;;;;;;4967100;28;20035;-88
2024/03/04 04:59:51;;;;;;;9.65;5.65;;;10.50;60.00;;;;;;4969862;28;20035;-84
2024/03/04 05:02:17;;;;;;;12.38;5.90;;;10.50;60.10;;;;;;4972940;28;20045;-82
2024/03/04 05:04:46;;;;;;;7.65;5.65;;;10.50;60.30;;;;;;4971039;28;20023;-86
2024/03/04 05:07:12;;;;;;;7.57;5.35;;;10.50;60.60;;;;;;4971914;28;20135;-92
2024/03/04 05:09:40;;;;;;;8.45;5.60;;;10.50;61.20;;;;;;4970409;28;20995;-91
2024/03/04 05:12:06;;;;;;;11.00;5.75;;;10.60;61.40;;;;;;4971310;28;20038;-91
2024/03/04 05:14:32;;;;;;;11.35;5.65;;;10.60;61.80;;;;;;4955021;28;20035;-90
2024/03/04 05:16:58;;;;;;;10.20;5.82;;;10.60;61.70;;;;;;4987115;28;20038;-93
2024/03/04 05:19:33;;;;;;;10.63;5.90;;;10.70;61.70;;;;;;4977132;28;20051;-88
2024/03/04 05:22:00;;;;;;;10.30;6.65;;;10.70;61.70;;;;;;4974857;28;20034;-86
2024/03/04 05:24:26;;;;;;;8.98;5.63;;;10.70;61.60;;;;;;4966945;28;20030;-91
2024/03/04 05:26:52;;;;;;;9.43;5.65;;;10.70;61.40;;;;;;4988689;28;20298;-91
2024/03/04 05:29:19;;;;;;;10.15;6.30;;;10.80;61.40;;;;;;4975589;28;20053;-92
2024/03/04 05:31:53;;;;;;;10.43;6.15;;;10.80;61.30;;;;;;4975407;28;20335;-92
2024/03/04 05:34:19;;;;;;;8.57;5.97;;;10.90;61.30;;;;;;4973807;28;20066;-92
2024/03/04 05:36:45;;;;;;;8.30;5.93;;;10.90;61.20;;;;;;4974958;28;20570;-92
2024/03/04 05:39:15;;;;;;;9.73;6.30;;;10.90;61.00;;;;;;4960903;28;20045;-93
2024/03/04 05:41:41;;;;;;;8.93;6.03;;;11.00;60.90;;;;;;4973754;28;20046;-88
2024/03/04 05:44:07;;;;;;;12.05;6.35;;;11.00;60.80;;;;;;4990749;28;20086;-93
2024/03/04 05:46:33;;;;;;;8.85;6.13;;;11.00;60.60;;;;;;4972926;28;21678;-92
2024/03/04 05:48:59;;;;;;;8.15;5.50;;;11.10;60.50;;;;;;4959936;28;20038;-92
2024/03/04 05:51:25;;;;;;;9.93;6.20;;;11.10;60.40;;;;;;4959452;28;20034;-92
2024/03/04 05:53:51;;;;;;;9.40;6.00;;;11.10;60.20;;;;;;4957638;28;20121;-92
2024/03/04 05:56:17;;;;;;;10.07;6.15;;;11.20;60.10;;;;;;4960712;28;20045;-93
2024/03/04 05:58:43;;;;;;;9.88;6.03;;;11.20;59.90;;;;;;4973557;28;20129;-86
2024/03/04 06:01:13;;;;;;;10.63;6.53;;;11.20;59.70;;;;;;4958451;28;20875;-89
2024/03/04 06:03:39;;;;;;;12.77;6.28;;;11.30;59.50;;;;;;4958244;28;20548;-85
2024/03/04 06:06:05;;;;;;;8.10;6.13;;;11.30;59.30;;;;;;4988542;28;20106;-87
2024/03/04 06:08:33;;;;;;;9.98;6.32;;;11.30;58.90;;;;;;4958102;28;20045;-85
2024/03/04 06:10:59;;;;;;;10.70;6.43;;;11.40;58.90;;;;;;4955835;28;20046;-86
2024/03/04 06:13:25;;;;;;;14.02;6.97;;;11.40;59.40;;;;;;4988911;28;20129;-88
2024/03/04 06:15:51;;;;;;;10.68;6.72;;;11.40;58.80;;;;;;4960102;28;20133;-88
2024/03/04 06:18:17;;;;;;;13.27;6.53;;;11.50;59.00;;;;;;4972991;28;20505;-87
2024/03/04 06:20:44;;;;;;;10.18;6.97;;;11.60;59.30;;;;;;4957893;28;20039;-85
2024/03/04 06:23:11;;;;;;;10.68;6.50;;;11.60;59.40;;;;;;4961707;28;20030;-87
2024/03/04 06:25:37;;;;;;;11.27;6.88;;;11.60;59.50;;;;;;4961376;28;20043;-86
2024/03/04 06:28:03;;;;;;;10.30;6.45;;;11.70;60.00;;;;;;4973845;28;20030;-85
2024/03/04 06:30:30;;;;;;;12.85;6.45;;;11.70;59.30;;;;;;4976827;28;20041;-88
2024/03/04 06:32:56;;;;;;;8.68;6.20;;;11.70;59.20;;;;;;4999801;28;20034;-87
2024/03/04 06:35:22;;;;;;;9.98;6.40;;;11.70;59.20;;;;;;4990025;28;20023;-84
2024/03/04 06:37:49;;;;;;;8.98;6.30;;;11.80;59.30;;;;;;4993750;28;20748;-85
2024/03/04 06:40:17;;;;;;;9.45;6.07;;;11.80;59.10;;;;;;4960615;28;20034;-87
2024/03/04 06:42:43;;;;;;;10.88;6.18;;;11.80;59.10;;;;;;4974666;28;20030;-87
2024/03/04 06:45:10;;;;;;;10.07;6.22;;;11.90;59.00;;;;;;4973220;28;20026;-88
2024/03/04 06:47:36;;;;;;;8.98;6.10;;;11.90;58.90;;;;;;4959534;28;20038;-88
2024/03/04 06:50:04;;;;;;;9.32;5.90;;;12.00;58.70;;;;;;4974999;28;20065;-89
2024/03/04 06:52:30;;;;;;;12.85;6.90;;;12.00;58.80;;;;;;4974820;28;20035;-88
2024/03/04 06:54:56;;;;;;;9.20;5.85;;;12.00;58.90;;;;;;4958500;28;20066;-89
2024/03/04 06:57:22;;;;;;;9.23;6.25;;;12.00;58.90;;;;;;4974164;28;20035;-87
2024/03/04 06:59:48;;;;;;;8.55;5.68;;;12.00;58.90;;;;;;4958262;28;20124;-85
2024/03/04 07:02:14;;;;;;;10.25;5.15;;;12.10;58.90;;;;;;4958114;28;20113;-86
2024/03/04 07:04:40;;;;;;;10.57;5.85;;;12.10;58.80;;;;;;4973813;28;21371;-84
2024/03/04 07:07:06;;;;;;;8.02;5.50;;;12.20;58.70;;;;;;4972294;28;20042;-87
2024/03/04 07:09:32;;;;;;;11.15;5.78;;;12.20;58.60;;;;;;4989545;28;20065;-89
2024/03/04 07:11:58;;;;;;;10.07;6.13;;;12.20;58.60;;;;;;4957951;28;20521;-88
2024/03/04 07:14:24;;;;;;;8.60;6.00;;;12.20;58.50;;;;;;4972286;28;20038;-87
2024/03/04 07:16:50;;;;;;;9.85;5.95;;;12.30;58.60;;;;;;4982454;28;20034;-89
2024/03/04 07:19:16;;;;;;;9.60;5.75;;;12.30;58.70;;;;;;4987198;28;20054;-89
2024/03/04 07:21:42;;;;;;;9.40;5.55;;;12.40;58.80;;;;;;4970729;28;20042;-87
2024/03/04 07:24:08;;;;;;;7.70;5.00;;;12.40;58.90;;;;;;4956018;28;20030;-86
2024/03/04 07:26:34;;;;;;;7.13;5.28;;;12.40;58.90;;;;;;4971771;28;20046;-89
2024/03/04 07:29:00;;;;;;;8.35;6.40;;;12.50;58.90;;;;;;4956126;28;20130;-84
2024/03/04 07:31:27;;;;;;;8.30;5.22;;;12.60;58.70;;;;;;4986391;28;20091;-87
2024/03/04 07:33:53;;;;;;;9.75;5.75;;;12.60;58.50;;;;;;4971627;28;20501;-87
2024/03/04 07:36:19;;;;;;;8.02;4.95;;;12.60;58.40;;;;;;4985587;28;20088;-90
2024/03/04 07:38:45;;;;;;;7.55;5.43;;;12.70;58.40;;;;;;4985577;28;20035;-88
2024/03/04 07:41:11;;;;;;;8.00;5.80;;;12.70;58.40;;;;;;4988606;28;20088;-87
2024/03/04 07:43:39;;;;;;;7.95;5.47;;;12.80;58.50;;;;;;4955615;28;20045;-91
2024/03/04 07:46:05;;;;;;;8.52;5.45;;;12.80;58.50;;;;;;4953709;28;20046;-89
2024/03/04 07:48:31;;;;;;;8.95;5.95;;;12.90;58.60;;;;;;4957114;28;20117;-90
2024/03/04 07:50:57;;;;;;;7.07;5.28;;;12.90;59.10;;;;;;4956634;28;20505;-89
2024/03/04 07:53:23;;;;;;;7.90;5.38;;;12.90;58.50;;;;;;4991477;28;20056;-89
2024/03/04 07:55:49;;;;;;;7.53;5.25;;;12.90;58.50;;;;;;4999767;28;20026;-87
2024/03/04 07:58:15;;;;;;;13.80;5.57;;;13.00;58.40;;;;;;4971915;28;20030;-89
2024/03/04 08:00:41;;;;;;;9.73;5.80;;;13.00;58.40;;;;;;4969812;28;20084;-87
2024/03/04 08:03:08;;;;;;;9.20;5.10;;;13.00;58.40;;;;;;4987226;28;20042;-90
2024/03/04 08:05:34;;;;;;;7.70;5.07;;;13.00;58.40;;;;;;4989097;28;20034;-88
2024/03/04 08:08:01;;;;;;;7.75;5.20;;;13.10;58.30;;;;;;4969603;28;20042;-88
2024/03/04 08:10:27;;;;;;;7.65;5.18;;;13.10;58.10;;;;;;4972867;28;20103;-89
2024/03/04 08:12:53;;;;;;;8.02;5.40;;;13.10;58.10;;;;;;4985448;28;20031;-88
2024/03/04 08:15:19;;;;;;;7.00;5.50;;;13.10;58.20;;;;;;4991339;28;20157;-89
2024/03/04 08:17:45;;;;;;;7.60;5.07;;;13.20;58.20;;;;;;4971148;28;20037;-87
2024/03/04 08:20:12;;;;;;;9.23;5.38;;;13.20;58.20;;;;;;4985517;28;20046;-86
2024/03/04 08:22:38;;;;;;;8.45;5.28;;;13.20;58.20;;;;;;4957068;28;20476;-86
2024/03/04 08:25:04;;;;;;;8.00;5.40;;;13.20;58.10;;;;;;4983370;28;20031;-87
2024/03/04 08:27:30;;;;;;;7.50;5.25;;;13.20;58.10;;;;;;4983485;28;20046;-94
2024/03/04 08:32:59;;;;;;;6.95;5.50;;;13.30;58.20;;;;;;4985698;23;20080;-95
2024/03/04 08:35:26;;;;;;;8.05;5.43;;;13.30;57.90;;;;;;4865322;29;20033;-94
2024/03/04 08:37:53;;;;;;;8.88;5.40;;;13.30;57.80;;;;;;4885212;29;20032;-90
2024/03/04 08:40:19;;;;;;;7.97;5.78;;;13.40;57.60;;;;;;4893878;29;20040;-91
2024/03/04 08:42:45;;;;;;;9.57;6.13;;;13.40;57.60;;;;;;4875811;29;20047;-88
2024/03/04 08:45:11;;;;;;;7.88;5.85;;;13.40;57.60;;;;;;4875550;29;20520;-93
2024/03/04 08:47:37;;;;;;;7.30;5.63;;;13.50;57.60;;;;;;4859259;29;20043;-89
2024/03/04 08:50:04;;;;;;;8.20;5.65;;;13.50;57.70;;;;;;4875566;29;20053;-91
2024/03/04 08:52:30;;;;;;;10.02;5.70;;;13.50;57.60;;;;;;4873011;29;20036;-85
2024/03/04 08:54:56;;;;;;;8.05;5.65;;;13.50;57.60;;;;;;4894356;29;20048;-93
2024/03/04 08:57:22;;;;;;;8.50;5.38;;;13.50;57.60;;;;;;4884461;29;20041;-90
2024/03/04 08:59:48;;;;;;;7.25;5.03;;;13.60;57.70;;;;;;4859379;29;20036;-91
2024/03/04 09:02:14;;;;;;;7.88;5.22;;;13.60;57.70;;;;;;4888610;29;20571;-90
2024/03/04 09:04:40;;;;;;;6.88;5.13;;;13.60;57.60;;;;;;4879668;29;20052;-89
2024/03/04 09:07:09;;;;;;;7.88;4.80;;;13.60;57.70;;;;;;4897003;29;20051;-91
2024/03/04 09:09:35;;;;;;;7.15;5.30;;;13.60;57.70;;;;;;4879298;29;20040;-91
2024/03/04 09:12:03;;;;;;;8.02;5.78;;;13.60;57.40;;;;;;4893779;29;20052;-89
2024/03/04 09:14:30;;;;;;;7.60;5.22;;;13.70;57.30;;;;;;4893789;29;20067;-95
2024/03/04 09:16:56;;;;;;;8.57;4.93;;;13.70;57.40;;;;;;4894956;29;20025;-90
2024/03/04 09:19:22;;;;;;;8.13;4.70;;;13.70;57.30;;;;;;4877310;29;20032;-90
2024/03/04 09:21:48;;;;;;;8.05;5.05;;;13.70;57.30;;;;;;4876414;29;20119;-89
2024/03/04 09:24:14;;;;;;;8.27;4.70;;;13.70;57.30;;;;;;4889172;29;20059;-90
2024/03/04 09:26:47;;;;;;;6.68;4.75;;;13.70;57.30;;;;;;4888697;29;20464;-89
2024/03/04 09:29:13;;;;;;;7.28;4.78;;;13.70;57.30;;;;;;4893376;29;20108;-89
2024/03/04 09:31:40;;;;;;;6.43;4.50;;;13.70;57.40;;;;;;4890967;29;20076;-88
2024/03/04 09:34:06;;;;;;;8.38;4.50;;;13.70;57.40;;;;;;4892139;29;20486;-89
2024/03/04 09:36:32;;;;;;;6.40;4.30;;;13.70;57.30;;;;;;4869233;29;20033;-94
2024/03/04 09:38:58;;;;;;;6.82;4.55;;;13.70;57.60;;;;;;4879659;29;20096;-93
2024/03/04 09:41:25;;;;;;;7.45;4.90;;;13.80;56.90;;;;;;4873945;29;20101;-92
2024/03/04 09:43:52;;;;;;;6.38;4.90;;;13.80;56.70;;;;;;4876250;29;20044;-92
2024/03/04 09:46:19;;;;;;;8.32;4.85;;;13.80;56.70;;;;;;4889767;29;20072;-95
2024/03/04 09:48:48;;;;;;;7.63;5.22;;;13.80;56.70;;;;;;4876680;29;20044;-87
2024/03/04 09:51:15;;;;;;;9.48;6.38;;;13.90;56.80;;;;;;4887354;29;20037;-84
2024/03/04 09:53:42;;;;;;;8.73;6.05;;;13.80;56.80;;;;;;4875165;29;20089;-90
2024/03/04 09:56:09;;;;;;;7.47;5.72;;;13.90;56.90;;;;;;4867303;29;20064;-92
2024/03/04 09:58:36;;;;;;;7.82;5.45;;;13.80;56.80;;;;;;4875643;29;20536;-92
2024/03/04 10:01:03;;;;;;;10.70;5.57;;;13.90;56.90;;;;;;4859574;29;20067;-90
2024/03/04 10:03:30;;;;;;;8.73;6.30;;;13.90;56.90;;;;;;4894284;29;20116;-90
2024/03/04 10:06:06;;;;;;;6.90;5.35;;;13.90;57.00;;;;;;4857505;29;20041;-89
2024/03/04 10:08:32;;;;;;;6.90;5.18;;;13.90;57.00;;;;;;4889439;29;20051;-92
2024/03/04 10:11:01;;;;;;;6.13;4.72;;;13.90;56.90;;;;;;4876014;29;20522;-93
2024/03/04 10:13:28;;;;;;;7.38;5.28;;;13.90;56.80;;;;;;4864074;29;20041;-93
2024/03/04 10:15:55;;;;;;;7.57;5.10;;;13.90;56.70;;;;;;4897501;29;20040;-91
2024/03/04 10:18:21;;;;;;;7.38;5.32;;;13.90;56.80;;;;;;4864580;29;20040;-87
2024/03/04 10:20:57;;;;;;;10.27;5.72;;;13.90;56.80;;;;;;4859379;29;20032;-90
2024/03/04 10:23:23;;;;;;;6.75;5.15;;;13.90;57.00;;;;;;4891243;29;20052;-92
2024/03/04 10:26:09;;;;;;;8.00;5.88;;;14.00;57.10;;;;;;4888189;29;20044;-91
2024/03/04 10:28:40;;;;;;;7.78;5.35;;;13.90;57.20;;;;;;4851282;29;20093;-92
2024/03/04 10:31:08;;;;;;;8.40;5.38;;;13.90;57.30;;;;;;4884047;29;20068;-89
2024/03/04 10:33:34;;;;;;;7.38;5.78;;;13.90;57.40;;;;;;4893030;29;20096;-90
2024/03/04 10:36:14;;;;;;;7.40;5.63;;;13.90;57.60;;;;;;4859994;29;20037;-89
2024/03/04 10:38:41;;;;;;;8.25;5.95;;;14.00;57.50;;;;;;4875919;29;20037;-90
2024/03/04 10:41:14;;;;;;;9.05;6.22;;;14.00;57.40;;;;;;4893021;29;20460;-90
2024/03/04 10:43:44;;;;;;;8.45;6.07;;;14.00;57.40;;;;;;4878726;29;20651;-89
2024/03/04 10:46:10;;;;;;;10.02;5.60;;;14.00;57.40;;;;;;4874123;29;20045;-92
2024/03/04 10:48:39;;;;;;;8.52;5.32;;;14.00;57.40;;;;;;4862590;29;20032;-94
2024/03/04 10:51:08;;;;;;;7.68;5.30;;;14.00;57.50;;;;;;4893332;29;20469;-87
2024/03/04 10:53:34;;;;;;;7.05;5.38;;;14.00;57.60;;;;;;4874515;29;20040;-90
2024/03/04 10:56:05;;;;;;;7.65;5.88;;;14.00;57.60;;;;;;4858190;29;20036;-91
2024/03/04 10:58:37;;;;;;;7.93;5.25;;;14.00;57.60;;;;;;4877183;29;20049;-91
2024/03/04 11:01:09;;;;;;;8.30;5.65;;;14.00;57.60;;;;;;4881291;29;20163;-94
2024/03/04 11:03:41;;;;;;;6.47;5.70;;;14.00;57.60;;;;;;4886157;29;20049;-89
2024/03/04 11:06:14;;;;;;;5.90;5.18;;;14.00;57.50;;;;;;4870578;29;20057;-93
2024/03/04 11:08:47;;;;;;;6.85;4.93;;;14.00;57.60;;;;;;4889376;29;20047;-89
2024/03/04 11:11:34;;;;;;;7.70;5.20;;;14.00;57.50;;;;;;4873909;29;20049;-93
2024/03/04 11:14:43;;;;;;;;;;;;;;;;;;;;;
2024/03/04 11:17:22;;;;;;;7.18;4.93;;;14.00;57.20;;;;;;4885353;29;20124;-89
2024/03/04 11:20:18;;;;;;;6.32;4.70;;;14.10;57.40;;;;;;4850797;29;20040;-87
2024/03/04 11:22:46;;;;;;;7.57;5.18;;;14.00;57.40;;;;;;4879506;29;20041;-87
2024/03/04 11:25:31;;;;;;;6.80;4.68;;;14.10;57.40;;;;;;4855333;29;20088;-88
2024/03/04 11:27:57;;;;;;;8.05;4.80;;;14.00;57.30;;;;;;4884465;29;20058;-87
2024/03/04 11:30:24;;;;;;;7.78;4.85;;;14.00;57.30;;;;;;4859717;29;20445;-86
2024/03/04 11:32:50;;;;;;;6.72;5.15;;;14.10;57.40;;;;;;4885851;29;20045;-88
2024/03/04 11:35:26;;;;;;;6.38;4.65;;;14.10;57.40;;;;;;4883916;29;20032;-89
2024/03/04 11:38:04;;;;;;;7.97;4.93;;;14.00;57.10;;;;;;4888836;29;20037;-86
2024/03/04 11:40:30;;;;;;;8.07;4.90;;;14.10;57.10;;;;;;4869730;29;20060;-87
2024/03/04 11:42:56;;;;;;;10.20;5.30;;;14.00;56.80;;;;;;4870567;29;20618;-88
2024/03/04 11:45:33;;;;;;;6.07;4.97;;;14.00;56.70;;;;;;4871317;29;21028;-87
2024/03/04 11:48:00;;;;;;;7.63;4.95;;;14.10;56.80;;;;;;4873393;29;20097;-90
2024/03/04 11:50:46;;;;;;;6.60;5.07;;;14.00;56.70;;;;;;4860658;29;20025;-92
2024/03/04 11:53:28;;;;;;;8.43;4.93;;;14.10;56.80;;;;;;4859152;29;20028;-92
2024/03/04 11:55:55;;;;;;;7.55;5.15;;;14.10;56.80;;;;;;4860716;29;20040;-93
2024/03/04 11:58:22;;;;;;;6.13;5.07;;;14.00;56.80;;;;;;4861517;29;20556;-93
2024/03/04 12:00:49;;;;;;;5.70;4.63;;;14.10;56.70;;;;;;4873765;29;20408;-92
2024/03/04 12:03:16;;;;;;;8.15;5.15;;;14.00;56.70;;;;;;4855443;29;20044;-95
2024/03/04 12:05:42;;;;;;;6.78;4.82;;;14.00;56.70;;;;;;4864123;29;20067;-94
2024/03/04 12:08:09;;;;;;;7.10;5.20;;;14.10;56.80;;;;;;4873812;29;20444;-93
2024/03/04 12:10:35;;;;;;;6.65;4.93;;;14.00;56.50;;;;;;4859793;29;20078;-89
2024/03/04 12:13:02;;;;;;;9.73;5.68;;;14.00;56.30;;;;;;4856501;29;20045;-84
2024/03/04 12:15:28;;;;;;;7.45;5.47;;;14.10;56.30;;;;;;4885667;29;20036;-86
2024/03/04 12:17:55;;;;;;;7.97;5.53;;;14.10;56.10;;;;;;4869531;29;20085;-86
2024/03/04 12:20:21;;;;;;;8.18;5.10;;;14.10;56.20;;;;;;4885674;29;20080;-85
2024/03/04 12:22:47;;;;;;;10.98;5.50;;;14.10;56.30;;;;;;4884733;29;20168;-85
2024/03/04 12:25:13;;;;;;;8.05;4.90;;;14.00;56.30;;;;;;4884271;29;20409;-85
2024/03/04 12:27:39;;;;;;;7.85;4.88;;;14.00;56.40;;;;;;4885541;29;20047;-85
2024/03/04 12:30:19;;;;;;;7.82;5.35;;;14.00;57.00;;;;;;4870593;29;20538;-85
2024/03/04 12:32:50;;;;;;;7.97;5.32;;;14.00;56.30;;;;;;4863475;29;20056;-88
2024/03/04 12:35:25;;;;;;;8.73;5.03;;;14.00;56.20;;;;;;4870738;29;20033;-85
2024/03/04 12:37:53;;;;;;;7.32;5.20;;;14.10;56.00;;;;;;4873664;29;20575;-85
2024/03/04 12:40:21;;;;;;;8.23;5.40;;;14.00;55.70;;;;;;4869928;29;20126;-85
2024/03/04 12:42:58;;;;;;;9.40;5.88;;;14.00;55.50;;;;;;4890743;29;20067;-85
2024/03/04 12:45:25;;;;;;;7.25;5.45;;;14.10;55.40;;;;;;4881536;29;20037;-85
2024/03/04 12:47:53;;;;;;;7.63;5.35;;;14.00;55.40;;;;;;4857412;29;20037;-85
2024/03/04 12:50:20;;;;;;;7.93;5.40;;;14.00;55.40;;;;;;4856632;29;20047;-84